CBE3 weather

Beamsville/Panterra Heliport
Beamsville, Ontario, Canada

Public forecast

Using degrees Celsius for public forecast. Weather courtesy of forecast.io.

METAR (pilot weather report)

Closest report is Niagara District Airport, 13.2 nm (24.5 km) E. Retrieved 2019/05/23 01:00 UTC (1 hour ago):

CYSN 230100Z 22004KT 15SM SCT040 BKN069 13/10 A3006 RMK SC4AC3 LAST STFD OBS/NEXT 231100 UTC SLP180

TAF (pilot weather forecast)

Forecast is more than 6 hours old.

Closest forecast is Niagara District Airport, 13.2 nm (24.5 km) E. Retrieved 2019/05/22 20:00 UTC (6 hours ago):

TAF CYSN 221938Z 2220/2301 11012KT P6SM OVC120 FM222200 13010KT P6SM BKN060 OVC100 TEMPO 2222/2301 P6SM -SHRA RMK NXT FCST WILL BE ISSUED AT 231245Z